createdAt,value
2018-02-22T00:00:26.215Z,54.20
2018-02-22T00:02:53.716Z,53.30
2018-02-22T00:05:21.411Z,54.67
2018-02-22T00:07:48.930Z,51.63
2018-02-22T00:10:16.653Z,60.20
2018-02-22T00:12:44.152Z,44.50
2018-02-22T00:15:11.655Z,55.80
2018-02-22T00:17:39.169Z,54.63
2018-02-22T00:20:07.708Z,54.57
2018-02-22T00:22:36.084Z,53.33
2018-02-22T00:25:03.593Z,58.40
2018-02-22T00:27:31.312Z,52.13
2018-02-22T00:29:58.823Z,50.70
2018-02-22T00:32:26.402Z,58.00
2018-02-22T00:34:53.947Z,52.23
2018-02-22T00:37:21.756Z,51.57
2018-02-22T00:39:49.261Z,57.00
2018-02-22T00:42:17.211Z,59.43
2018-02-22T00:44:44.717Z,54.73
2018-02-22T00:47:12.222Z,58.23
2018-02-22T00:49:39.905Z,54.30
2018-02-22T00:52:08.322Z,53.90
2018-02-22T00:54:35.923Z,55.07
2018-02-22T00:57:04.478Z,57.77
2018-02-22T00:59:32.004Z,54.90
2018-02-22T01:01:59.659Z,61.50
2018-02-22T01:04:27.175Z,56.70
2018-02-22T01:06:54.699Z,59.63
2018-02-22T01:09:22.205Z,52.83
2018-02-22T01:11:50.474Z,59.73
2018-02-22T01:14:17.978Z,56.27
2018-02-22T01:16:45.659Z,57.43
2018-02-22T01:19:13.156Z,50.30
2018-02-22T01:21:41.647Z,62.87
2018-02-22T01:24:09.915Z,56.60
2018-02-22T01:26:37.630Z,58.90
2018-02-22T01:29:05.135Z,59.50
2018-02-22T01:31:32.875Z,56.17
2018-02-22T01:34:01.878Z,53.90
2018-02-22T01:36:29.419Z,53.17
2018-02-22T01:38:56.911Z,55.17
2018-02-22T01:41:25.188Z,57.60
2018-02-22T01:43:53.491Z,60.73
2018-02-22T01:46:20.995Z,58.90
2018-02-22T01:48:50.015Z,66.80
2018-02-22T01:51:17.727Z,63.53
2018-02-22T01:53:45.497Z,60.53
2018-02-22T01:56:13.127Z,55.93
2018-02-22T01:58:40.611Z,58.10
2018-02-22T02:01:08.477Z,64.90
2018-02-22T02:03:35.983Z,49.47
2018-02-22T02:06:03.552Z,59.90
2018-02-22T02:08:31.159Z,52.87
2018-02-22T02:10:58.664Z,56.80
2018-02-22T02:13:26.384Z,63.27
2018-02-22T02:15:54.146Z,57.00
2018-02-22T02:18:21.674Z,58.60
2018-02-22T02:20:49.186Z,60.00
2018-02-22T02:23:17.459Z,57.83
2018-02-22T02:25:44.971Z,56.07
2018-02-22T02:28:12.621Z,54.37
2018-02-22T02:30:40.129Z,54.40
2018-02-22T02:33:07.637Z,55.03
2018-02-22T02:35:35.320Z,53.67
2018-02-22T02:38:03.055Z,61.50
2018-02-22T02:40:30.695Z,54.87
2018-02-22T02:42:59.240Z,51.43
2018-02-22T02:45:26.992Z,60.77
2018-02-22T02:47:54.588Z,60.00
2018-02-22T02:50:22.860Z,60.53
2018-02-22T02:52:50.599Z,55.03
2018-02-22T02:55:18.537Z,58.93
2018-02-22T02:57:46.113Z,66.23
2018-02-22T03:00:13.624Z,60.97
2018-02-22T03:02:41.114Z,59.63
2018-02-22T03:05:08.632Z,62.43
2018-02-22T03:07:36.139Z,60.27
2018-02-22T03:10:03.703Z,59.50
2018-02-22T03:12:31.502Z,51.60
2018-02-22T03:14:59.219Z,56.40
2018-02-22T03:17:26.928Z,59.43
2018-02-22T03:19:55.379Z,58.43
2018-02-22T03:22:22.898Z,51.23
2018-02-22T03:24:50.419Z,55.77
2018-02-22T03:27:18.056Z,52.43
2018-02-22T03:29:45.571Z,56.03
2018-02-22T03:32:13.233Z,58.67
2018-02-22T03:34:40.743Z,66.50
2018-02-22T03:37:08.239Z,63.97
2018-02-22T03:39:35.943Z,55.83
2018-02-22T03:42:03.452Z,55.63
2018-02-22T03:44:30.971Z,59.93
2018-02-22T03:46:58.632Z,60.10
2018-02-22T03:49:26.393Z,62.93
2018-02-22T03:51:53.884Z,59.77
2018-02-22T03:54:21.414Z,61.80
2018-02-22T03:56:48.932Z,53.77
2018-02-22T03:59:16.431Z,54.90
2018-02-22T04:01:43.974Z,60.83
2018-02-22T04:04:12.177Z,65.60
2018-02-22T04:06:39.671Z,60.10
2018-02-22T04:09:07.238Z,55.87
2018-02-22T04:11:35.028Z,58.80
2018-02-22T04:14:02.528Z,55.63
2018-02-22T04:16:30.036Z,62.57
2018-02-22T04:18:57.681Z,56.40
2018-02-22T04:21:25.188Z,61.00
2018-02-22T04:23:52.680Z,57.00
2018-02-22T04:26:20.382Z,54.97
2018-02-22T04:28:48.145Z,52.53
2018-02-22T04:31:16.260Z,61.43
2018-02-22T04:33:43.770Z,52.90
2018-02-22T04:36:11.271Z,57.63
2018-02-22T04:38:38.800Z,58.03
2018-02-22T04:41:06.379Z,59.23
2018-02-22T04:43:33.899Z,56.00
2018-02-22T04:46:01.413Z,55.03
2018-02-22T04:48:29.680Z,62.83
2018-02-22T04:50:57.188Z,65.17
2018-02-22T04:53:24.859Z,57.23
2018-02-22T04:55:52.365Z,62.30
2018-02-22T04:58:20.103Z,54.90
2018-02-22T05:00:47.627Z,59.63
2018-02-22T05:03:15.193Z,61.33
2018-02-22T05:05:42.771Z,54.20
2018-02-22T05:08:10.279Z,56.27
2018-02-22T05:10:37.778Z,56.60
2018-02-22T05:13:05.432Z,62.40
2018-02-22T05:15:33.196Z,53.47
2018-02-22T05:18:01.230Z,55.87
2018-02-22T05:20:28.731Z,50.70
2018-02-22T05:22:56.259Z,56.93
2018-02-22T05:25:23.924Z,57.50
2018-02-22T05:27:51.489Z,56.33
2018-02-22T05:30:19.194Z,58.93
2018-02-22T05:32:46.763Z,60.93
2018-02-22T05:35:15.030Z,53.53
2018-02-22T05:37:42.544Z,60.43
2018-02-22T05:40:10.198Z,56.27
2018-02-22T05:42:37.698Z,59.73
2018-02-22T05:45:06.011Z,56.27
2018-02-22T05:47:33.508Z,60.30
2018-02-22T05:50:01.012Z,62.10
2018-02-22T05:52:28.520Z,58.73
2018-02-22T05:54:56.183Z,51.80
2018-02-22T05:57:23.705Z,60.90
2018-02-22T05:59:51.420Z,53.30
2018-02-22T06:02:18.971Z,56.10
2018-02-22T06:04:46.481Z,52.43
2018-02-22T06:07:14.010Z,59.53
2018-02-22T06:09:41.514Z,59.23
2018-02-22T06:12:09.301Z,56.40
2018-02-22T06:14:37.020Z,53.23
2018-02-22T06:17:04.550Z,54.77
2018-02-22T06:19:33.552Z,52.73
2018-02-22T06:22:01.275Z,57.37
2018-02-22T06:24:28.782Z,54.67
2018-02-22T06:26:56.296Z,56.13
2018-02-22T06:29:23.795Z,59.30
2018-02-22T06:31:52.069Z,47.17
2018-02-22T06:34:19.783Z,47.17
2018-02-22T06:36:47.295Z,49.80
2018-02-22T06:39:14.915Z,57.40
2018-02-22T06:41:42.420Z,52.90
2018-02-22T06:44:09.919Z,48.13
2018-02-22T06:46:37.436Z,53.43
2018-02-22T06:49:04.945Z,53.00
2018-02-22T06:51:32.584Z,50.87
2018-02-22T06:54:00.362Z,49.93
2018-02-22T06:56:27.867Z,49.47
2018-02-22T06:58:55.554Z,52.57
2018-02-22T07:01:23.111Z,50.57
2018-02-22T07:03:50.773Z,48.77
2018-02-22T07:06:18.267Z,51.80
2018-02-22T07:08:45.796Z,52.80
2018-02-22T07:11:13.304Z,52.57
2018-02-22T07:13:40.930Z,52.73
2018-02-22T07:16:08.748Z,51.40
2018-02-22T07:18:36.423Z,55.37
2018-02-22T07:21:03.955Z,53.70
2018-02-22T07:23:31.465Z,54.43
2018-02-22T07:25:58.994Z,54.60
2018-02-22T07:28:27.256Z,59.90
2018-02-22T07:30:55.034Z,54.23
2018-02-22T07:33:22.559Z,56.70
2018-02-22T07:35:50.198Z,49.67
2018-02-22T07:38:17.702Z,52.87
2018-02-22T07:40:45.206Z,58.33
2018-02-22T07:43:12.758Z,50.27
2018-02-22T07:45:40.980Z,58.87
2018-02-22T07:48:09.332Z,51.30
2018-02-22T07:50:36.828Z,44.40
2018-02-22T07:53:04.552Z,49.83
2018-02-22T07:55:32.308Z,47.97
2018-02-22T07:57:59.867Z,55.23
2018-02-22T08:00:27.334Z,46.63
2018-02-22T08:02:54.830Z,47.63
2018-02-22T08:05:22.407Z,60.00
2018-02-22T08:07:49.915Z,58.97
2018-02-22T08:10:19.205Z,53.60
2018-02-22T08:12:46.959Z,55.47
2018-02-22T08:17:48.615Z,57.33
2018-02-22T08:20:16.387Z,53.73
2018-02-22T08:22:44.022Z,51.17
2018-02-22T08:25:11.579Z,43.77
2018-02-22T08:27:39.076Z,51.70
2018-02-22T08:30:06.597Z,54.17
2018-02-22T08:32:34.283Z,49.70
2018-02-22T08:35:02.048Z,53.77
2018-02-22T08:37:29.564Z,48.80
2018-02-22T08:39:57.284Z,54.37
2018-02-22T08:42:25.208Z,46.43
2018-02-22T08:44:52.696Z,45.33
2018-02-22T08:47:20.204Z,47.13
2018-02-22T08:49:47.700Z,51.53
2018-02-22T08:52:15.217Z,52.17
2018-02-22T08:54:42.950Z,46.23
2018-02-22T08:57:10.739Z,56.43
2018-02-22T08:59:38.199Z,55.37
2018-02-22T09:02:05.719Z,50.83
2018-02-22T09:04:33.364Z,54.70
2018-02-22T09:07:01.131Z,48.43
2018-02-22T09:09:28.628Z,49.80
2018-02-22T09:11:56.352Z,53.60
2018-02-22T09:14:23.861Z,47.40
2018-02-22T09:16:51.544Z,52.53
2018-02-22T09:19:19.370Z,49.93
2018-02-22T09:21:47.109Z,53.93
2018-02-22T09:24:14.872Z,51.00
2018-02-22T09:26:42.395Z,54.37
2018-02-22T09:29:09.908Z,52.67
2018-02-22T09:31:37.823Z,51.93
2018-02-22T09:34:05.317Z,52.23
2018-02-22T09:36:34.690Z,56.10
2018-02-22T09:39:02.541Z,49.67
2018-02-22T09:41:30.128Z,47.33
2018-02-22T09:43:57.635Z,46.80
2018-02-22T09:46:25.270Z,50.77
2018-02-22T09:48:52.802Z,48.00
2018-02-22T09:51:20.304Z,49.40
2018-02-22T09:53:48.044Z,51.97
2018-02-22T09:56:15.792Z,50.80
2018-02-22T09:58:43.546Z,43.00
2018-02-22T10:01:11.064Z,46.33
2018-02-22T10:03:38.574Z,45.23
2018-02-22T10:06:07.153Z,43.67
2018-02-22T10:08:34.912Z,47.73
2018-02-22T10:11:02.420Z,32.93
2018-02-22T10:13:30.102Z,42.53
2018-02-22T10:15:57.612Z,42.23
2018-02-22T10:18:25.360Z,41.20
2018-02-22T10:20:53.122Z,32.70
2018-02-22T10:23:20.627Z,36.93
2018-02-22T10:25:48.330Z,46.40
2018-02-22T10:28:15.816Z,35.00
2018-02-22T10:30:43.327Z,32.63
2018-02-22T10:33:10.830Z,41.27
2018-02-22T10:35:38.445Z,42.37
2018-02-22T10:38:06.233Z,32.77
2018-02-22T10:40:34.007Z,38.67
2018-02-22T10:43:01.499Z,38.40
2018-02-22T10:45:29.252Z,36.53
2018-02-22T10:47:56.751Z,39.60
2018-02-22T10:50:24.442Z,49.70
2018-02-22T10:52:52.214Z,36.33
2018-02-22T10:55:20.245Z,30.57
2018-02-22T10:57:47.752Z,33.90
2018-02-22T11:00:15.260Z,23.43
2018-02-22T11:02:59.368Z,27.30
2018-02-22T11:05:27.650Z,38.50
2018-02-22T11:07:55.148Z,33.00
2018-02-22T11:10:23.456Z,30.73
2018-02-22T11:12:50.975Z,35.77
2018-02-22T11:15:18.472Z,43.93
2018-02-22T11:17:45.994Z,37.67
2018-02-22T11:20:13.575Z,39.80
2018-02-22T11:22:41.079Z,38.60
2018-02-22T11:25:08.590Z,37.23
2018-02-22T11:27:36.256Z,36.73
2018-02-22T11:30:03.787Z,36.73
2018-02-22T11:32:31.447Z,40.60
2018-02-22T11:34:58.952Z,36.93
2018-02-22T11:37:26.873Z,36.57
2018-02-22T11:39:54.464Z,39.77
2018-02-22T11:42:21.975Z,51.27
2018-02-22T11:44:49.589Z,35.57
2018-02-22T11:47:17.147Z,41.33
2018-02-22T11:49:44.640Z,39.23
2018-02-22T11:52:12.175Z,31.30
2018-02-22T11:54:40.443Z,33.60
2018-02-22T11:57:07.960Z,36.40
2018-02-22T11:59:35.473Z,38.43
2018-02-22T12:02:03.739Z,29.67
2018-02-22T12:04:31.252Z,33.33
2018-02-22T12:06:58.778Z,38.80
2018-02-22T12:09:27.086Z,32.33
2018-02-22T12:11:54.583Z,34.50
2018-02-22T12:14:22.243Z,32.60
2018-02-22T12:16:49.804Z,35.03
2018-02-22T12:19:17.464Z,32.13
2018-02-22T12:21:45.012Z,34.50
2018-02-22T12:24:13.147Z,37.73
2018-02-22T12:26:40.655Z,30.93
2018-02-22T12:29:08.217Z,30.63
2018-02-22T12:31:35.806Z,30.53
2018-02-22T12:34:04.355Z,30.93
2018-02-22T12:36:31.875Z,31.13
2018-02-22T12:38:59.531Z,37.70
2018-02-22T12:41:27.037Z,37.17
2018-02-22T12:43:54.563Z,37.50
2018-02-22T12:46:22.056Z,32.00
2018-02-22T12:48:50.632Z,31.63
2018-02-22T12:51:18.376Z,33.33
2018-02-22T12:53:46.391Z,33.57
2018-02-22T12:56:13.907Z,44.43
2018-02-22T12:58:41.436Z,35.87
2018-02-22T13:01:09.148Z,33.37
2018-02-22T13:03:36.856Z,35.20
2018-02-22T13:06:04.368Z,37.50
2018-02-22T13:08:31.871Z,52.00
2018-02-22T13:10:59.569Z,38.00
2018-02-22T13:13:27.089Z,33.97
2018-02-22T13:15:54.764Z,28.37
2018-02-22T13:18:22.535Z,40.80
2018-02-22T13:20:50.044Z,34.57
2018-02-22T13:23:17.788Z,37.90
2018-02-22T13:25:45.295Z,31.50
2018-02-22T13:28:12.959Z,36.20
2018-02-22T13:30:40.461Z,30.37
2018-02-22T13:33:20.195Z,33.00
2018-02-22T13:35:47.711Z,29.50
2018-02-22T13:38:27.099Z,35.07
2018-02-22T13:40:54.620Z,40.70
2018-02-22T13:43:22.900Z,29.57
2018-02-22T13:45:50.679Z,30.30
2018-02-22T13:48:18.433Z,34.37
2018-02-22T13:50:57.808Z,34.00
2018-02-22T13:53:25.307Z,31.67
2018-02-22T13:55:53.809Z,31.80
2018-02-22T13:58:21.303Z,28.03
2018-02-22T14:01:01.420Z,32.33
2018-02-22T14:03:28.961Z,33.17
2018-02-22T14:05:56.460Z,32.83
2018-02-22T14:08:35.863Z,38.73
2018-02-22T14:11:03.384Z,35.60
2018-02-22T14:13:31.097Z,27.47
2018-02-22T14:15:58.888Z,28.10
2018-02-22T14:18:27.948Z,32.37
2018-02-22T14:20:55.614Z,27.87
2018-02-22T14:23:23.118Z,29.50
2018-02-22T14:25:50.615Z,24.30
2018-02-22T14:28:18.169Z,25.47
2018-02-22T14:30:46.732Z,29.37
2018-02-22T14:33:14.239Z,23.93
2018-02-22T14:35:41.884Z,29.23
2018-02-22T14:38:09.455Z,25.97
2018-02-22T14:40:37.127Z,24.63
2018-02-22T14:43:04.876Z,23.00
2018-02-22T14:45:32.404Z,29.90
2018-02-22T14:47:59.895Z,26.60
2018-02-22T14:50:27.544Z,22.93
2018-02-22T14:52:55.887Z,23.43
2018-02-22T14:55:23.406Z,33.03
2018-02-22T14:57:50.916Z,25.93
2018-02-22T15:00:18.420Z,27.93
2018-02-22T15:02:48.716Z,28.63
2018-02-22T15:05:16.292Z,26.73
2018-02-22T15:07:44.123Z,25.13
2018-02-22T15:10:12.474Z,22.20
2018-02-22T15:12:40.196Z,24.73
2018-02-22T15:15:07.702Z,28.00
2018-02-22T15:17:35.394Z,27.50
2018-02-22T15:20:02.912Z,34.00
2018-02-22T15:22:30.679Z,37.43
2018-02-22T15:24:58.337Z,35.80
2018-02-22T15:27:26.203Z,38.13
2018-02-22T15:29:53.863Z,40.20
2018-02-22T15:32:21.592Z,36.30
2018-02-22T15:34:49.135Z,34.40
2018-02-22T15:37:16.637Z,44.97
2018-02-22T15:39:44.357Z,41.87
2018-02-22T15:42:11.900Z,37.13
2018-02-22T15:44:39.453Z,40.63
2018-02-22T15:47:07.031Z,38.10
2018-02-22T15:49:34.556Z,46.90
2018-02-22T15:52:02.219Z,41.10
2018-02-22T15:54:29.787Z,41.20
2018-02-22T15:56:57.450Z,42.90
2018-02-22T15:59:25.236Z,40.50
2018-02-22T16:01:53.000Z,44.97
2018-02-22T16:04:20.543Z,37.27
2018-02-22T16:06:48.052Z,44.70
2018-02-22T16:09:16.335Z,42.50
2018-02-22T16:11:44.051Z,44.97
2018-02-22T16:14:11.632Z,48.30
2018-02-22T16:16:39.127Z,47.30
2018-02-22T16:19:06.749Z,50.10
2018-02-22T16:21:34.256Z,44.77
2018-02-22T16:24:01.777Z,47.10
2018-02-22T16:26:29.299Z,49.87
2018-02-22T16:28:56.834Z,49.43
2018-02-22T16:31:24.684Z,63.77
2018-02-22T16:33:52.401Z,54.13
2018-02-22T16:36:19.895Z,49.07
2018-02-22T16:38:47.403Z,58.50
2018-02-22T16:41:14.891Z,51.70
2018-02-22T16:43:43.165Z,55.90
2018-02-22T16:46:10.901Z,53.87
2018-02-22T16:48:38.440Z,51.63
2018-02-22T16:51:05.944Z,58.37
2018-02-22T16:53:33.537Z,57.63
2018-02-22T16:56:01.043Z,47.13
2018-02-22T16:58:28.553Z,60.83
2018-02-22T17:00:56.266Z,52.33
2018-02-22T17:03:23.813Z,58.30
2018-02-22T17:05:51.474Z,41.53
2018-02-22T17:08:18.980Z,47.53
2018-02-22T17:10:46.603Z,53.93
2018-02-22T17:13:14.123Z,51.43
2018-02-22T17:15:41.628Z,50.10
2018-02-22T17:18:09.953Z,56.50
2018-02-22T17:20:38.247Z,63.13
2018-02-22T17:23:05.815Z,58.23
2018-02-22T17:25:33.672Z,64.83
2018-02-22T17:28:07.113Z,59.83
2018-02-22T17:30:40.384Z,66.57
2018-02-22T17:33:07.877Z,63.40
2018-02-22T17:35:43.581Z,64.90
2018-02-22T17:38:25.966Z,77.77
2018-02-22T17:41:10.251Z,53.00
2018-02-22T17:43:37.776Z,49.50
2018-02-22T17:46:05.318Z,46.37
2018-02-22T17:48:32.827Z,45.07
2018-02-22T17:51:00.381Z,46.70
2018-02-22T17:53:28.131Z,40.90
2018-02-22T17:55:55.701Z,40.20
2018-02-22T17:58:23.397Z,51.50
2018-02-22T18:00:51.890Z,38.70
2018-02-22T18:03:19.439Z,37.03
2018-02-22T18:05:46.956Z,34.23
2018-02-22T18:08:14.467Z,23.97
2018-02-22T18:10:41.981Z,25.07
2018-02-22T18:13:09.499Z,23.50
2018-02-22T18:15:37.012Z,21.27
2018-02-22T18:18:05.333Z,23.53
2018-02-22T18:20:33.603Z,29.67
2018-02-22T18:23:01.103Z,25.00
2018-02-22T18:25:29.395Z,28.80
2018-02-22T18:27:56.934Z,23.10
2018-02-22T18:30:24.561Z,21.03
2018-02-22T18:32:52.355Z,21.80
2018-02-22T18:35:19.867Z,21.00
2018-02-22T18:37:53.034Z,18.37
2018-02-22T18:40:27.056Z,18.83
2018-02-22T18:42:54.760Z,20.43
2018-02-22T18:45:22.282Z,15.83
2018-02-22T18:47:49.787Z,18.73
2018-02-22T18:50:17.301Z,16.43
2018-02-22T18:52:45.606Z,15.57
2018-02-22T18:55:13.122Z,16.00
2018-02-22T18:57:41.428Z,14.87
2018-02-22T19:00:09.290Z,15.10
2018-02-22T19:02:36.800Z,15.27
2018-02-22T19:05:04.309Z,15.90
2018-02-22T19:07:32.116Z,14.37
2018-02-22T19:09:59.620Z,18.80
2018-02-22T19:12:27.133Z,11.97
2018-02-22T19:14:55.847Z,12.33
2018-02-22T19:17:25.000Z,16.10
2018-02-22T19:19:52.783Z,13.70
2018-02-22T19:22:21.801Z,14.10
2018-02-22T19:24:52.697Z,15.73
2018-02-22T19:27:20.316Z,14.93
2018-02-22T19:29:47.821Z,16.93
2018-02-22T19:32:15.339Z,20.77
2018-02-22T19:34:43.044Z,12.20
2018-02-22T19:37:10.570Z,11.53
2018-02-22T19:39:38.074Z,12.30
2018-02-22T19:42:05.575Z,14.37
2018-02-22T19:44:33.103Z,8.87
2018-02-22T19:47:00.601Z,12.37
2018-02-22T19:49:28.121Z,113.57
2018-02-22T19:51:56.460Z,13.57
2018-02-22T19:54:24.228Z,13.10
2018-02-22T19:56:51.743Z,11.40
2018-02-22T19:59:20.367Z,10.17
2018-02-22T20:01:47.996Z,11.40
2018-02-22T20:04:15.492Z,15.13
2018-02-22T20:06:43.971Z,10.53
2018-02-22T20:09:11.526Z,8.87
2018-02-22T20:11:39.151Z,12.90
2018-02-22T20:14:06.667Z,11.57
2018-02-22T20:16:34.186Z,15.80
2018-02-22T20:19:01.901Z,11.93
2018-02-22T20:21:29.561Z,10.13
2018-02-22T20:23:57.946Z,14.23
2018-02-22T20:26:25.435Z,13.73
2018-02-22T20:28:53.668Z,11.73
2018-02-22T20:31:21.929Z,9.50
2018-02-22T20:33:49.436Z,9.93
2018-02-22T20:36:16.941Z,8.53
2018-02-22T20:38:44.448Z,10.43
2018-02-22T20:41:12.007Z,10.30
2018-02-22T20:43:39.563Z,10.07
2018-02-22T20:46:07.602Z,10.70
2018-02-22T20:48:35.364Z,8.73
2018-02-22T20:51:03.475Z,70.07
2018-02-22T20:53:30.972Z,16.13
2018-02-22T20:55:58.484Z,13.10
2018-02-22T20:58:27.285Z,10.93
2018-02-22T21:00:55.563Z,7.60
2018-02-22T21:03:25.973Z,7.83
2018-02-22T21:05:53.487Z,10.80
2018-02-22T21:08:20.988Z,10.40
2018-02-22T21:10:48.509Z,11.97
2018-02-22T21:13:16.035Z,10.40
2018-02-22T21:15:43.823Z,9.10
2018-02-22T21:18:12.978Z,9.17
2018-02-22T21:20:40.512Z,8.90
2018-02-22T21:23:08.000Z,9.47
2018-02-22T21:25:35.775Z,8.57
2018-02-22T21:28:03.306Z,9.87
2018-02-22T21:30:30.808Z,8.77
2018-02-22T21:32:58.299Z,11.23
2018-02-22T21:35:25.894Z,9.40
2018-02-22T21:37:53.388Z,7.77
2018-02-22T21:40:21.172Z,9.50
2018-02-22T21:42:48.743Z,8.27
2018-02-22T21:45:16.351Z,8.00
2018-02-22T21:47:44.202Z,8.00
2018-02-22T21:50:11.697Z,9.37
2018-02-22T21:52:39.641Z,9.30
2018-02-22T21:55:07.192Z,10.70
2018-02-22T21:57:34.732Z,7.53
2018-02-22T22:00:02.301Z,7.80
2018-02-22T22:02:31.079Z,11.30
2018-02-22T22:05:02.061Z,11.70
2018-02-22T22:07:29.602Z,7.97
2018-02-22T22:09:57.356Z,8.67
2018-02-22T22:12:24.871Z,11.03
2018-02-22T22:14:52.579Z,10.00
2018-02-22T22:17:20.968Z,6.77
2018-02-22T22:19:48.462Z,13.40
2018-02-22T22:22:16.127Z,14.87
2018-02-22T22:24:43.589Z,51.03
2018-02-22T22:27:11.399Z,10.67
2018-02-22T22:29:38.906Z,10.73
2018-02-22T22:32:06.481Z,8.90
2018-02-22T22:34:35.676Z,15.07
2018-02-22T22:37:03.181Z,10.70
2018-02-22T22:39:32.566Z,12.77
2018-02-22T22:42:00.065Z,12.40
2018-02-22T22:44:27.570Z,8.50
2018-02-22T22:46:55.140Z,11.03
2018-02-22T22:49:22.648Z,13.57
2018-02-22T22:51:50.907Z,9.67
2018-02-22T22:54:18.643Z,7.07
2018-02-22T22:56:46.134Z,8.93
2018-02-22T22:59:13.860Z,10.50
2018-02-22T23:01:41.407Z,10.33
2018-02-22T23:04:08.913Z,10.17
2018-02-22T23:06:37.183Z,8.70
2018-02-22T23:09:04.682Z,10.10
2018-02-22T23:11:32.184Z,7.00
2018-02-22T23:14:00.075Z,10.07
2018-02-22T23:16:27.565Z,11.40
2018-02-22T23:18:55.071Z,9.93
2018-02-22T23:21:22.556Z,9.47
2018-02-22T23:23:50.279Z,8.13
2018-02-22T23:26:17.779Z,9.50
2018-02-22T23:28:45.275Z,9.77
2018-02-22T23:31:12.918Z,5.80
2018-02-22T23:33:40.423Z,7.10
2018-02-22T23:36:09.698Z,7.67
2018-02-22T23:38:37.221Z,10.00
2018-02-22T23:41:08.559Z,9.87
2018-02-22T23:43:36.081Z,12.93
2018-02-22T23:46:05.084Z,11.23
2018-02-22T23:48:32.604Z,9.63
2018-02-22T23:51:00.529Z,11.30
2018-02-22T23:53:28.045Z,8.97
2018-02-22T23:55:55.979Z,23.07
2018-02-22T23:58:23.459Z,10.47
